Terminal Aerodrome Forecast
Issued by NWS

Home | Current Version | Previous Version | Text Only | Print | Product List | Glossary On
Versions: 1 2 3 4 5 6 7 8 9 10 11 12 13 14 15 16 17 18 19 20 21 22 23 24 25 26 27 28 29 30 31
000
FTUS42 KFFC 030538
TAFFTY
TAF
KFTY 030538Z 0306/0406 24008KT P6SM SCT045 BKN070
     FM030900 23008KT P6SM BKN010
     FM031400 25012KT P6SM BKN025 BKN250
     FM031600 26015G25KT P6SM VCSH SCT050 BKN250 PROB30 0319/0323
      4SM TSRA BKN025CB
     FM040100 27008KT P6SM SCT040 BKN080=

USA.gov is the U.S. government's official web portal to all federal, state and local government web resources and services.